createdAt,value
2018-08-19T00:00:25.449Z,100941.72
2018-08-19T00:01:32.157Z,100939.27
2018-08-19T00:02:37.924Z,100949.30
2018-08-19T00:03:43.920Z,100945.06
2018-08-19T00:04:49.272Z,100952.09
2018-08-19T00:05:54.632Z,100948.31
2018-08-19T00:07:00.440Z,100951.94
2018-08-19T00:08:06.021Z,100950.30
2018-08-19T00:09:11.215Z,100951.00
2018-08-19T00:10:16.540Z,100948.33
2018-08-19T00:11:22.685Z,100953.00
2018-08-19T00:12:27.772Z,100945.99
2018-08-19T00:13:33.196Z,100951.01
2018-08-19T00:14:39.518Z,100948.91
2018-08-19T00:15:49.915Z,100947.30
2018-08-19T00:16:55.425Z,100955.68
2018-08-19T00:18:04.532Z,100950.33
2018-08-19T00:19:10.064Z,100950.25
2018-08-19T00:20:15.511Z,100951.45
2018-08-19T00:21:22.697Z,100948.02
2018-08-19T00:22:28.867Z,100954.97
2018-08-19T00:23:34.335Z,100950.48
2018-08-19T00:24:40.409Z,100948.61
2018-08-19T00:25:47.926Z,100955.24
2018-08-19T00:26:53.616Z,100946.36
2018-08-19T00:27:59.995Z,100950.91
2018-08-19T00:29:05.805Z,100955.92
2018-08-19T00:30:12.873Z,100953.18
2018-08-19T00:31:20.085Z,100952.89
2018-08-19T00:32:26.942Z,100954.08
2018-08-19T00:33:34.293Z,100950.48
2018-08-19T00:34:40.888Z,100950.92
2018-08-19T00:35:49.445Z,100952.93
2018-08-19T00:36:56.738Z,100955.22
2018-08-19T00:38:04.921Z,100956.45
2018-08-19T00:39:12.009Z,100956.52
2018-08-19T00:40:19.753Z,100964.77
2018-08-19T00:41:26.808Z,100960.45
2018-08-19T00:42:34.052Z,100959.28
2018-08-19T00:43:42.260Z,100961.58
2018-08-19T00:44:51.367Z,100957.37
2018-08-19T00:45:59.679Z,100956.53
2018-08-19T00:47:07.700Z,100955.59
2018-08-19T00:48:14.828Z,100958.73
2018-08-19T00:49:22.122Z,100962.48
2018-08-19T00:50:28.920Z,100962.09
2018-08-19T00:51:36.833Z,100961.52
2018-08-19T00:52:43.965Z,100961.00
2018-08-19T00:53:51.477Z,100961.32
2018-08-19T00:54:59.064Z,100961.36
2018-08-19T00:56:05.974Z,100957.58
2018-08-19T00:57:14.051Z,100959.25
2018-08-19T00:58:20.998Z,100955.11
2018-08-19T00:59:28.263Z,100958.05
2018-08-19T01:00:35.313Z,100954.45
2018-08-19T01:01:40.829Z,100961.78
2018-08-19T01:02:48.386Z,100962.72
2018-08-19T01:03:56.077Z,100962.55
2018-08-19T01:05:03.047Z,100964.66
2018-08-19T01:06:11.376Z,100966.16
2018-08-19T01:07:20.452Z,100958.59
2018-08-19T01:08:28.882Z,100970.17
2018-08-19T01:09:46.380Z,100970.80
2018-08-19T01:10:53.377Z,100967.83
2018-08-19T01:12:01.388Z,100966.88
2018-08-19T01:13:10.022Z,100969.71
2018-08-19T01:14:16.998Z,100965.97
2018-08-19T01:15:23.980Z,100967.54
2018-08-19T01:16:31.285Z,100968.69
2018-08-19T01:17:37.926Z,100963.46
2018-08-19T01:18:49.439Z,100961.94
2018-08-19T01:19:56.641Z,100961.20
2018-08-19T01:21:04.861Z,100966.54
2018-08-19T01:22:11.685Z,100966.89
2018-08-19T01:23:18.081Z,100967.24
2018-08-19T01:24:24.122Z,100966.11
2018-08-19T01:25:30.876Z,100964.90
2018-08-19T01:26:37.566Z,100959.09
2018-08-19T01:27:44.511Z,100959.91
2018-08-19T01:28:51.339Z,100957.26
2018-08-19T01:29:57.391Z,100962.24
2018-08-19T01:31:03.589Z,100961.11
2018-08-19T01:32:09.458Z,100961.66
2018-08-19T01:33:16.031Z,100957.20
2018-08-19T01:34:22.165Z,100956.30
2018-08-19T01:35:28.134Z,100964.16
2018-08-19T01:36:36.180Z,100959.33
2018-08-19T01:37:43.447Z,100960.73
2018-08-19T01:38:50.557Z,100962.02
2018-08-19T01:39:56.870Z,100963.06
2018-08-19T01:41:03.153Z,100956.06
2018-08-19T01:42:09.371Z,100959.30
2018-08-19T01:43:16.220Z,100963.53
2018-08-19T01:44:23.440Z,100958.31
2018-08-19T01:45:29.798Z,100957.58
2018-08-19T01:46:35.953Z,100949.83
2018-08-19T01:47:41.593Z,100952.31
2018-08-19T01:48:46.927Z,100961.80
2018-08-19T01:49:53.942Z,100960.70
2018-08-19T01:51:00.052Z,100958.39
2018-08-19T01:52:05.714Z,100953.32
2018-08-19T01:53:11.843Z,100960.71
2018-08-19T01:54:17.711Z,100956.66
2018-08-19T01:55:23.980Z,100957.34
2018-08-19T01:56:30.591Z,100953.83
2018-08-19T01:57:36.545Z,100960.38
2018-08-19T01:58:42.344Z,100955.04
2018-08-19T01:59:57.402Z,100956.02
2018-08-19T02:01:04.466Z,100952.50
2018-08-19T02:02:11.097Z,100949.70
2018-08-19T02:03:17.011Z,100950.30
2018-08-19T02:04:24.847Z,100945.25
2018-08-19T02:05:30.711Z,100945.27
2018-08-19T02:06:41.364Z,100943.39
2018-08-19T02:07:46.739Z,100942.81
2018-08-19T02:08:58.936Z,100936.16
2018-08-19T02:10:04.606Z,100939.56
2018-08-19T02:11:10.485Z,100939.34
2018-08-19T02:12:16.059Z,100941.66
2018-08-19T02:13:21.669Z,100940.15
2018-08-19T02:14:34.305Z,100937.97
2018-08-19T02:15:40.413Z,100940.83
2018-08-19T02:16:46.085Z,100935.53
2018-08-19T02:17:53.415Z,100941.84
2018-08-19T02:19:02.835Z,100938.35
2018-08-19T02:20:08.446Z,100943.11
2018-08-19T02:21:14.440Z,100944.97
2018-08-19T02:22:20.517Z,100942.20
2018-08-19T02:23:26.969Z,100941.78
2018-08-19T02:24:33.085Z,100943.59
2018-08-19T02:25:40.046Z,100949.59
2018-08-19T02:26:45.432Z,100944.48
2018-08-19T02:27:51.564Z,100946.59
2018-08-19T02:28:58.244Z,100945.59
2018-08-19T02:30:04.033Z,100947.50
2018-08-19T02:31:10.797Z,100950.65
2018-08-19T02:32:16.580Z,100946.36
2018-08-19T02:33:22.600Z,100944.41
2018-08-19T02:34:28.178Z,100950.81
2018-08-19T02:35:39.913Z,100955.52
2018-08-19T02:36:46.228Z,100948.86
2018-08-19T02:37:52.511Z,100955.44
2018-08-19T02:38:58.494Z,100951.27
2018-08-19T02:40:04.739Z,100952.58
2018-08-19T02:41:10.017Z,100955.77
2018-08-19T02:42:16.960Z,100955.59
2018-08-19T02:43:22.413Z,100954.66
2018-08-19T02:44:28.525Z,100951.79
2018-08-19T02:45:34.680Z,100945.34
2018-08-19T02:46:40.704Z,100953.80
2018-08-19T02:47:46.849Z,100951.34
2018-08-19T02:48:53.662Z,100954.02
2018-08-19T02:50:00.628Z,100954.34
2018-08-19T02:51:06.406Z,100953.38
2018-08-19T02:52:12.129Z,100950.94
2018-08-19T02:53:18.329Z,100949.54
2018-08-19T02:54:24.304Z,100954.59
2018-08-19T02:55:30.609Z,100955.58
2018-08-19T02:56:36.093Z,100961.59
2018-08-19T02:57:42.196Z,100956.38
2018-08-19T02:58:48.308Z,100952.58
2018-08-19T02:59:54.407Z,100952.85
2018-08-19T03:01:00.547Z,100952.50
2018-08-19T03:02:05.735Z,100950.75
2018-08-19T03:03:11.698Z,100950.64
2018-08-19T03:04:17.812Z,100950.96
2018-08-19T03:05:23.928Z,100953.23
2018-08-19T03:06:30.762Z,100942.66
2018-08-19T03:07:36.776Z,100947.34
2018-08-19T03:08:41.960Z,100944.27
2018-08-19T03:09:53.460Z,100947.63
2018-08-19T03:11:03.580Z,100948.35
2018-08-19T03:12:08.742Z,100944.27
2018-08-19T03:13:14.825Z,100942.37
2018-08-19T03:14:21.460Z,100947.55
2018-08-19T03:15:27.347Z,100941.02
2018-08-19T03:16:32.472Z,100941.41
2018-08-19T03:17:38.334Z,100944.38
2018-08-19T03:18:44.473Z,100946.06
2018-08-19T03:19:49.880Z,100946.91
2018-08-19T03:20:55.989Z,100946.99
2018-08-19T03:22:02.334Z,100942.91
2018-08-19T03:23:08.015Z,100941.52
2018-08-19T03:24:14.080Z,100940.88
2018-08-19T03:25:20.289Z,100942.34
2018-08-19T03:26:26.086Z,100944.17
2018-08-19T03:27:31.393Z,100943.20
2018-08-19T03:28:37.380Z,100943.16
2018-08-19T03:29:43.261Z,100943.30
2018-08-19T03:30:48.709Z,100943.17
2018-08-19T03:31:54.496Z,100939.98
2018-08-19T03:33:00.538Z,100934.48
2018-08-19T03:34:06.232Z,100934.05
2018-08-19T03:35:12.073Z,100935.23
2018-08-19T03:36:18.824Z,100935.63
2018-08-19T03:37:24.916Z,100937.83
2018-08-19T03:38:31.079Z,100934.92
2018-08-19T03:39:37.068Z,100934.06
2018-08-19T03:40:49.446Z,100934.53
2018-08-19T03:41:55.629Z,100930.53
2018-08-19T03:43:01.912Z,100934.84
2018-08-19T03:44:09.988Z,100930.88
2018-08-19T03:45:15.829Z,100932.09
2018-08-19T03:46:21.910Z,100931.69
2018-08-19T03:47:27.275Z,100937.08
2018-08-19T03:48:33.011Z,100934.03
2018-08-19T03:49:38.943Z,100940.38
2018-08-19T03:50:45.084Z,100936.59
2018-08-19T03:51:50.850Z,100939.74
2018-08-19T03:52:57.991Z,100944.34
2018-08-19T03:54:03.986Z,100935.98
2018-08-19T03:55:10.076Z,100948.53
2018-08-19T03:56:16.064Z,100947.94
2018-08-19T03:57:22.012Z,100952.64
2018-08-19T03:58:33.248Z,100952.95
2018-08-19T03:59:39.606Z,100950.77
2018-08-19T04:00:45.556Z,100945.80
2018-08-19T04:01:54.340Z,100947.33
2018-08-19T04:03:00.034Z,100944.28
2018-08-19T04:04:05.739Z,100946.15
2018-08-19T04:05:11.752Z,100952.63
2018-08-19T04:06:17.145Z,100951.68
2018-08-19T04:07:23.927Z,100951.25
2018-08-19T04:08:29.521Z,100948.16
2018-08-19T04:09:35.576Z,100949.53
2018-08-19T04:10:41.958Z,100954.20
2018-08-19T04:11:47.414Z,100951.65
2018-08-19T04:12:53.455Z,100962.22
2018-08-19T04:14:00.172Z,100965.69
2018-08-19T04:15:05.372Z,100969.27
2018-08-19T04:16:11.349Z,100971.11
2018-08-19T04:17:17.432Z,100976.40
2018-08-19T04:18:23.361Z,100976.92
2018-08-19T04:19:29.379Z,100979.24
2018-08-19T04:20:36.525Z,100980.33
2018-08-19T04:21:42.527Z,100972.66
2018-08-19T04:22:48.559Z,100980.76
2018-08-19T04:23:54.555Z,100982.45
2018-08-19T04:25:00.870Z,100982.02
2018-08-19T04:26:06.959Z,100984.70
2018-08-19T04:27:12.992Z,100988.96
2018-08-19T04:28:19.164Z,100985.06
2018-08-19T04:29:25.285Z,100990.44
2018-08-19T04:30:31.284Z,100992.13
2018-08-19T04:31:37.264Z,100988.69
2018-08-19T04:32:43.188Z,100990.77
2018-08-19T04:33:49.176Z,100991.07
2018-08-19T04:34:55.190Z,100984.54
2018-08-19T04:36:00.960Z,100984.44
2018-08-19T04:37:06.993Z,100982.03
2018-08-19T04:38:13.056Z,100987.77
2018-08-19T04:39:18.772Z,100981.60
2018-08-19T04:40:24.845Z,100992.83
2018-08-19T04:41:30.934Z,100992.13
2018-08-19T04:42:37.091Z,100991.12
2018-08-19T04:43:42.873Z,100995.11
2018-08-19T04:44:48.968Z,100995.80
2018-08-19T04:45:55.252Z,100995.63
2018-08-19T04:47:01.301Z,100995.73
2018-08-19T04:48:07.378Z,100999.56
2018-08-19T04:49:12.577Z,100996.75
2018-08-19T04:50:18.995Z,100998.08
2018-08-19T04:51:24.273Z,100994.96
2018-08-19T04:52:34.493Z,100995.92
2018-08-19T04:53:40.583Z,100997.70
2018-08-19T04:54:47.268Z,100995.41
2018-08-19T04:55:53.256Z,100998.14
2018-08-19T04:56:59.288Z,100996.84
2018-08-19T04:58:04.628Z,101001.93
2018-08-19T04:59:10.738Z,100998.59
2018-08-19T05:00:16.455Z,100999.58
2018-08-19T05:01:22.504Z,100998.56
2018-08-19T05:02:28.302Z,101002.34
2018-08-19T05:03:34.488Z,101003.53
2018-08-19T05:04:40.501Z,101003.53
2018-08-19T05:05:46.503Z,101003.63
2018-08-19T05:06:52.604Z,101005.34
2018-08-19T05:07:59.022Z,101004.84
2018-08-19T05:09:04.345Z,101003.51
2018-08-19T05:10:10.425Z,101006.52
2018-08-19T05:11:16.430Z,101002.95
2018-08-19T05:12:22.587Z,101009.36
2018-08-19T05:13:28.601Z,101008.07
2018-08-19T05:14:35.315Z,101002.67
2018-08-19T05:15:45.361Z,101012.15
2018-08-19T05:16:51.464Z,101007.50
2018-08-19T05:17:57.593Z,101007.44
2018-08-19T05:19:03.694Z,101010.98
2018-08-19T05:20:08.751Z,101005.94
2018-08-19T05:21:14.887Z,101011.73
2018-08-19T05:22:20.246Z,101011.98
2018-08-19T05:23:26.019Z,101009.76
2018-08-19T05:24:32.072Z,101008.96
2018-08-19T05:25:37.139Z,101015.52
2018-08-19T05:26:48.627Z,101007.09
2018-08-19T05:27:54.371Z,101006.77
2018-08-19T05:28:59.504Z,101010.81
2018-08-19T05:30:04.879Z,101005.30
2018-08-19T05:31:10.794Z,101003.86
2018-08-19T05:32:16.866Z,101009.88
2018-08-19T05:33:23.012Z,101004.62
2018-08-19T05:34:28.941Z,101007.20
2018-08-19T05:35:35.099Z,101002.17
2018-08-19T05:36:50.881Z,101007.55
2018-08-19T05:38:04.745Z,101008.09
2018-08-19T05:39:10.942Z,101012.42
2018-08-19T05:40:16.949Z,101011.32
2018-08-19T05:41:23.058Z,101007.88
2018-08-19T05:42:28.680Z,101012.87
2018-08-19T05:43:34.718Z,101005.84
2018-08-19T05:44:40.852Z,101006.91
2018-08-19T05:45:46.630Z,101007.32
2018-08-19T05:46:52.546Z,101002.75
2018-08-19T05:47:57.841Z,101010.20
2018-08-19T05:49:03.253Z,101005.89
2018-08-19T05:50:08.885Z,101004.08
2018-08-19T05:51:14.941Z,101002.38
2018-08-19T05:52:21.036Z,101006.66
2018-08-19T05:53:26.444Z,101004.11
2018-08-19T05:54:31.602Z,101004.63
2018-08-19T05:55:38.013Z,101007.88
2018-08-19T05:56:43.564Z,100999.81
2018-08-19T05:57:49.508Z,101000.94
2018-08-19T05:58:55.631Z,101002.86
2018-08-19T06:00:03.025Z,101005.19
2018-08-19T06:01:08.414Z,101008.20
2018-08-19T06:02:14.353Z,101006.19
2018-08-19T06:03:20.394Z,100998.42
2018-08-19T06:04:26.471Z,101007.13
2018-08-19T06:05:32.201Z,101002.11
2018-08-19T06:06:38.193Z,101001.16
2018-08-19T06:07:44.738Z,101004.81
2018-08-19T06:08:50.217Z,101006.02
2018-08-19T06:09:56.217Z,101004.52
2018-08-19T06:11:02.327Z,101005.03
2018-08-19T06:12:07.611Z,101003.06
2018-08-19T06:13:12.996Z,101003.23
2018-08-19T06:14:20.004Z,101004.25
2018-08-19T06:15:25.393Z,101001.38
2018-08-19T06:16:37.433Z,101004.07
2018-08-19T06:17:43.595Z,101007.64
2018-08-19T06:18:49.644Z,101007.97
2018-08-19T06:19:55.766Z,101001.69
2018-08-19T06:21:01.863Z,101000.50
2018-08-19T06:22:07.550Z,101010.52
2018-08-19T06:23:13.775Z,101007.89
2018-08-19T06:24:19.096Z,101003.28
2018-08-19T06:25:24.824Z,101006.09
2018-08-19T06:26:32.637Z,101005.78
2018-08-19T06:27:44.188Z,101006.25
2018-08-19T06:28:49.709Z,101005.09
2018-08-19T06:29:55.743Z,101001.18
2018-08-19T06:31:07.894Z,101001.02
2018-08-19T06:32:13.209Z,100998.70
2018-08-19T06:33:19.410Z,100997.86
2018-08-19T06:34:26.091Z,100998.11
2018-08-19T06:35:32.205Z,100998.56
2018-08-19T06:36:38.388Z,100995.44
2018-08-19T06:37:45.025Z,100996.48
2018-08-19T06:38:51.157Z,100997.03
2018-08-19T06:39:56.824Z,100998.77
2018-08-19T06:41:02.903Z,100998.77
2018-08-19T06:42:08.516Z,100998.81
2018-08-19T06:43:19.636Z,100994.31
2018-08-19T06:44:26.396Z,100998.46
2018-08-19T06:45:32.168Z,100998.84
2018-08-19T06:46:38.240Z,100999.34
2018-08-19T06:47:43.608Z,100992.86
2018-08-19T06:48:49.730Z,100993.94
2018-08-19T06:49:55.820Z,100998.51
2018-08-19T06:51:02.238Z,100997.80
2018-08-19T06:52:08.309Z,100998.20
2018-08-19T06:53:14.340Z,100993.16
2018-08-19T06:54:21.048Z,100994.71
2018-08-19T06:55:26.768Z,100992.92
2018-08-19T06:56:33.697Z,100999.45
2018-08-19T06:57:39.819Z,100998.80
2018-08-19T06:58:45.908Z,100995.38
2018-08-19T06:59:51.745Z,101000.60
2018-08-19T07:00:57.692Z,101004.47
2018-08-19T07:02:03.720Z,101001.47
2018-08-19T07:03:10.176Z,100997.30
2018-08-19T07:04:17.038Z,101001.11
2018-08-19T07:05:24.122Z,100996.39
2018-08-19T07:06:29.520Z,100998.54
2018-08-19T07:07:35.240Z,101002.54
2018-08-19T07:08:41.551Z,101002.11
2018-08-19T07:09:48.540Z,101002.20
2018-08-19T07:10:55.587Z,100993.62
2018-08-19T07:12:02.655Z,100996.20
2018-08-19T07:13:09.464Z,100998.13
2018-08-19T07:14:16.164Z,100991.05
2018-08-19T07:15:24.254Z,100997.67
2018-08-19T07:16:31.103Z,100999.73
2018-08-19T07:17:38.227Z,101001.15
2018-08-19T07:18:45.020Z,100997.83
2018-08-19T07:19:52.313Z,100999.72
2018-08-19T07:21:00.940Z,100997.10
2018-08-19T07:22:08.470Z,101000.63
2018-08-19T07:23:18.109Z,100994.99
2018-08-19T07:24:24.376Z,100993.47
2018-08-19T07:25:31.065Z,100994.62
2018-08-19T07:26:37.318Z,101001.61
2018-08-19T07:27:45.205Z,100996.37
2018-08-19T07:28:54.280Z,100998.94
2018-08-19T07:30:00.798Z,100997.97
2018-08-19T07:31:07.316Z,100999.17
2018-08-19T07:32:15.263Z,100997.42
2018-08-19T07:33:26.518Z,100996.73
2018-08-19T07:34:33.212Z,100994.55
2018-08-19T07:35:39.992Z,100994.61
2018-08-19T07:36:46.693Z,100996.69
2018-08-19T07:37:54.119Z,100997.47
2018-08-19T07:39:00.820Z,100993.59
2018-08-19T07:40:07.494Z,100992.09
2018-08-19T07:41:13.637Z,100995.98
2018-08-19T07:42:20.467Z,100991.05
2018-08-19T07:43:27.287Z,100996.77
2018-08-19T07:44:35.133Z,100988.45
2018-08-19T07:45:41.511Z,100995.03
2018-08-19T07:46:47.659Z,100993.34
2018-08-19T07:47:53.796Z,100997.38
2018-08-19T07:49:00.589Z,100994.78
2018-08-19T07:50:06.968Z,100994.42
2018-08-19T07:51:13.717Z,100994.13
2018-08-19T07:52:21.693Z,100991.68
2018-08-19T07:53:28.827Z,100987.19
2018-08-19T07:54:35.727Z,100989.13
2018-08-19T07:55:44.410Z,100986.20
2018-08-19T07:56:51.102Z,100990.55
2018-08-19T07:57:58.352Z,100992.55
2018-08-19T07:59:04.558Z,100985.09
2018-08-19T08:00:11.381Z,100991.62
2018-08-19T08:01:17.802Z,100989.41
2018-08-19T08:02:23.886Z,100988.39
2018-08-19T08:03:31.038Z,100987.48
2018-08-19T08:04:37.065Z,100980.20
2018-08-19T08:05:47.760Z,100983.41
2018-08-19T08:06:54.312Z,100979.27
2018-08-19T08:08:00.697Z,100980.52
2018-08-19T08:09:07.420Z,100981.39
2018-08-19T08:10:14.630Z,100983.47
2018-08-19T08:11:21.669Z,100977.08
2018-08-19T08:12:27.776Z,100982.14
2018-08-19T08:13:34.957Z,100976.89
2018-08-19T08:14:42.974Z,100978.48
2018-08-19T08:15:50.327Z,100981.74
2018-08-19T08:16:56.809Z,100980.78
2018-08-19T08:18:03.864Z,100981.41
2018-08-19T08:19:10.580Z,100978.93
2018-08-19T08:20:17.280Z,100978.47
2018-08-19T08:21:23.165Z,100976.46
2018-08-19T08:22:29.695Z,100982.69
2018-08-19T08:23:35.644Z,100980.22
2018-08-19T08:24:42.340Z,100977.62
2018-08-19T08:25:48.268Z,100975.64
2018-08-19T08:26:54.744Z,100977.62
2018-08-19T08:28:01.427Z,100978.28
2018-08-19T08:29:07.478Z,100982.12
2018-08-19T08:30:14.415Z,100974.17
2018-08-19T08:31:22.400Z,100974.60
2018-08-19T08:32:29.409Z,100969.24
2018-08-19T08:33:34.916Z,100970.95
2018-08-19T08:34:41.820Z,100971.86
2018-08-19T08:35:48.537Z,100971.99
2018-08-19T08:37:02.604Z,100972.06
2018-08-19T08:38:20.296Z,100968.77
2018-08-19T08:44:10.085Z,100974.12
2018-08-19T08:45:32.865Z,100970.38
2018-08-19T08:46:52.857Z,100969.05
2018-08-19T08:48:07.862Z,100962.56
2018-08-19T08:49:20.000Z,100965.23
2018-08-19T08:50:35.384Z,100966.22
2018-08-19T08:51:48.586Z,100966.93
2018-08-19T08:53:00.339Z,100959.36
2018-08-19T08:54:17.331Z,100955.97
2018-08-19T08:55:31.242Z,100948.06
2018-08-19T08:56:46.867Z,100955.07
2018-08-19T08:58:00.764Z,100951.41
2018-08-19T08:59:17.486Z,100951.31
2018-08-19T09:00:26.699Z,100949.91
2018-08-19T09:01:34.568Z,100948.27
2018-08-19T09:02:46.926Z,100940.31
2018-08-19T09:04:00.331Z,100940.25
2018-08-19T09:05:14.361Z,100939.55
2018-08-19T09:06:27.960Z,100939.89
2018-08-19T09:07:42.022Z,100941.44
2018-08-19T09:08:55.759Z,100939.74
2018-08-19T09:10:03.032Z,100939.46
2018-08-19T09:11:09.469Z,100944.55
2018-08-19T09:12:14.871Z,100938.28
2018-08-19T09:13:40.844Z,100937.73
2018-08-19T09:14:47.040Z,100936.17
2018-08-19T09:15:53.130Z,100934.04
2018-08-19T09:16:59.067Z,100934.67
2018-08-19T09:18:04.844Z,100939.13
2018-08-19T09:19:10.579Z,100936.54
2018-08-19T09:20:16.418Z,100929.60
2018-08-19T09:21:22.418Z,100928.98
2018-08-19T09:22:29.075Z,100932.66
2018-08-19T09:23:35.010Z,100930.80
2018-08-19T09:24:41.098Z,100931.27
2018-08-19T09:25:48.829Z,100931.86
2018-08-19T09:26:55.145Z,100931.36
2018-08-19T09:28:02.070Z,100928.23
2018-08-19T09:29:09.019Z,100926.73
2018-08-19T09:30:14.519Z,100923.52
2018-08-19T09:31:21.220Z,100924.21
2018-08-19T09:32:33.450Z,100925.05
2018-08-19T09:33:41.520Z,100926.34
2018-08-19T09:34:48.250Z,100927.25
2018-08-19T09:35:55.261Z,100917.28
2018-08-19T09:37:02.240Z,100918.59
2018-08-19T09:38:14.022Z,100921.91
2018-08-19T09:39:21.052Z,100915.25
2018-08-19T09:40:31.638Z,100922.58
2018-08-19T09:41:38.550Z,100913.81
2018-08-19T09:42:54.695Z,100918.97
2018-08-19T09:44:01.422Z,100911.29
2018-08-19T09:45:08.254Z,100911.29
2018-08-19T09:46:14.792Z,100910.50
2018-08-19T09:47:20.382Z,100914.11
2018-08-19T09:48:31.016Z,100910.36
2018-08-19T09:49:39.002Z,100905.34
2018-08-19T09:50:46.163Z,100901.94
2018-08-19T09:51:52.497Z,100905.97
2018-08-19T09:53:03.571Z,100898.92
2018-08-19T09:54:18.959Z,100907.39
2018-08-19T09:55:32.758Z,100898.77
2018-08-19T09:56:48.873Z,100904.94
2018-08-19T09:58:05.948Z,100897.30
2018-08-19T09:59:20.486Z,100901.88
2018-08-19T10:00:36.101Z,100892.51
2018-08-19T10:01:46.389Z,100896.94
2018-08-19T10:03:04.776Z,100893.95
2018-08-19T10:04:23.982Z,100887.02
2018-08-19T10:05:41.012Z,100890.88
2018-08-19T10:06:54.558Z,100887.41
2018-08-19T10:08:09.165Z,100884.12
2018-08-19T10:09:24.744Z,100880.61
2018-08-19T10:10:39.704Z,100882.27
2018-08-19T10:11:56.018Z,100880.10
2018-08-19T10:13:07.474Z,100874.86
2018-08-19T10:14:23.291Z,100877.07
2018-08-19T10:15:38.726Z,100873.41
2018-08-19T10:16:53.395Z,100874.88
2018-08-19T10:18:09.141Z,100871.08
2018-08-19T10:19:22.960Z,100867.92
2018-08-19T10:20:38.406Z,100870.48
2018-08-19T10:21:52.316Z,100867.32
2018-08-19T10:23:05.693Z,100860.11
2018-08-19T10:24:20.410Z,100855.27
2018-08-19T10:25:33.465Z,100864.63
2018-08-19T10:26:43.396Z,100860.59
2018-08-19T10:27:55.871Z,100859.23
2018-08-19T10:29:08.368Z,100857.91
2018-08-19T10:30:20.720Z,100854.23
2018-08-19T10:31:33.856Z,100849.04
2018-08-19T10:32:44.839Z,100856.87
2018-08-19T10:33:55.856Z,100848.02
2018-08-19T10:35:08.137Z,100849.20
2018-08-19T10:36:19.348Z,100846.03
2018-08-19T10:37:33.475Z,100844.83
2018-08-19T10:38:49.486Z,100839.66
2018-08-19T10:39:58.583Z,100847.78
2018-08-19T10:41:17.083Z,100844.61
2018-08-19T10:42:31.834Z,100843.13
2018-08-19T10:43:46.283Z,100844.40
2018-08-19T10:45:01.039Z,100840.52
2018-08-19T10:46:13.238Z,100840.69
2018-08-19T10:47:24.837Z,100840.02
2018-08-19T10:48:36.555Z,100844.06
2018-08-19T10:49:48.378Z,100836.41
2018-08-19T10:50:56.788Z,100838.71
2018-08-19T10:52:09.261Z,100836.47
2018-08-19T10:53:21.136Z,100831.23
2018-08-19T10:54:32.892Z,100829.50
2018-08-19T10:55:51.191Z,100832.37
2018-08-19T10:57:08.025Z,100826.02
2018-08-19T10:58:24.844Z,100822.17
2018-08-19T10:59:42.007Z,100823.94
2018-08-19T11:00:55.701Z,100820.94
2018-08-19T11:02:13.137Z,100817.50
2018-08-19T11:03:29.894Z,100818.66
2018-08-19T11:04:45.473Z,100820.89
2018-08-19T11:05:56.102Z,100818.34
2018-08-19T11:07:12.597Z,100819.84
2018-08-19T11:08:25.285Z,100813.59
2018-08-19T11:09:40.156Z,100813.23
2018-08-19T11:10:49.911Z,100812.66
2018-08-19T11:12:08.017Z,100811.39
2018-08-19T11:13:23.850Z,100810.73
2018-08-19T11:14:38.089Z,100818.84
2018-08-19T11:15:53.484Z,100817.20
2018-08-19T11:17:05.321Z,100811.30
2018-08-19T11:18:18.809Z,100804.12
2018-08-19T11:19:30.997Z,100806.47
2018-08-19T11:20:45.454Z,100802.72
2018-08-19T11:21:58.217Z,100802.72
2018-08-19T11:23:19.841Z,100801.73
2018-08-19T11:24:36.168Z,100800.57
2018-08-19T11:25:49.571Z,100802.09
2018-08-19T11:27:01.589Z,100801.14
2018-08-19T11:28:13.262Z,100796.36
2018-08-19T11:29:24.321Z,100801.95
2018-08-19T11:30:35.791Z,100798.10
2018-08-19T11:31:46.712Z,100793.70
2018-08-19T11:32:57.884Z,100793.11
2018-08-19T11:34:08.654Z,100796.36
2018-08-19T11:35:24.184Z,100793.69
2018-08-19T11:36:34.846Z,100794.61
2018-08-19T11:37:47.594Z,100792.70
2018-08-19T11:39:00.777Z,100789.06
2018-08-19T11:40:15.234Z,100787.67
2018-08-19T11:41:26.178Z,100790.23
2018-08-19T11:42:39.911Z,100786.83
2018-08-19T11:43:54.388Z,100785.70
2018-08-19T11:45:10.028Z,100781.91
2018-08-19T11:46:23.756Z,100786.16
2018-08-19T11:47:38.412Z,100786.66
2018-08-19T11:48:50.931Z,100782.41
2018-08-19T11:50:03.353Z,100784.23
2018-08-19T11:51:16.662Z,100784.98
2018-08-19T11:52:25.615Z,100781.31
2018-08-19T11:53:39.165Z,100775.00
2018-08-19T11:54:53.833Z,100779.16
2018-08-19T11:56:07.212Z,100774.19
2018-08-19T11:57:17.638Z,100772.05
2018-08-19T11:58:29.184Z,100765.38
2018-08-19T11:59:42.277Z,100774.88
2018-08-19T12:00:58.487Z,100766.07
2018-08-19T12:02:12.873Z,100766.74
2018-08-19T12:03:27.205Z,100764.37
2018-08-19T12:04:39.724Z,100765.16
2018-08-19T12:05:45.535Z,100760.95
2018-08-19T12:06:51.250Z,100766.07
2018-08-19T12:07:56.982Z,100760.89
2018-08-19T12:09:02.462Z,100763.34
2018-08-19T12:10:07.983Z,100759.06
2018-08-19T12:11:13.842Z,100758.94
2018-08-19T12:12:18.716Z,100760.52
2018-08-19T12:13:24.483Z,100756.55
2018-08-19T12:14:29.298Z,100752.11
2018-08-19T12:15:34.959Z,100752.05
2018-08-19T12:16:39.986Z,100748.93
2018-08-19T12:17:45.790Z,100748.81
2018-08-19T12:18:51.176Z,100746.89
2018-08-19T12:19:56.872Z,100740.37
2018-08-19T12:21:02.539Z,100737.08
2018-08-19T12:22:08.224Z,100739.89
2018-08-19T12:23:16.893Z,100736.44
2018-08-19T12:24:22.613Z,100735.67
2018-08-19T12:25:28.603Z,100731.70
2018-08-19T12:26:33.927Z,100725.47
2018-08-19T12:27:39.725Z,100724.28
2018-08-19T12:28:45.705Z,100718.31
2018-08-19T12:29:51.021Z,100714.00
2018-08-19T12:30:56.814Z,100713.28
2018-08-19T12:32:01.929Z,100713.50
2018-08-19T12:33:07.075Z,100715.70
2018-08-19T12:34:12.747Z,100721.67
2018-08-19T12:35:18.610Z,100713.46
2018-08-19T12:36:24.441Z,100711.13
2018-08-19T12:37:30.281Z,100711.44
2018-08-19T12:38:41.321Z,100709.59
2018-08-19T12:39:46.647Z,100704.41
2018-08-19T12:40:52.357Z,100701.48
2018-08-19T12:41:57.845Z,100703.22
2018-08-19T12:43:02.999Z,100698.86
2018-08-19T12:44:08.121Z,100705.83
2018-08-19T12:45:13.566Z,100700.36
2018-08-19T12:46:19.348Z,100702.53
2018-08-19T12:47:25.168Z,100700.75
2018-08-19T12:48:30.483Z,100701.48
2018-08-19T12:49:35.845Z,100699.78
2018-08-19T12:50:40.670Z,100696.73
2018-08-19T12:51:46.412Z,100694.97
2018-08-19T12:52:52.108Z,100685.30
2018-08-19T12:53:57.404Z,100685.60
2018-08-19T12:55:03.132Z,100679.99
2018-08-19T12:56:08.497Z,100682.79
2018-08-19T12:57:14.286Z,100681.88
2018-08-19T12:58:19.999Z,100686.45
2018-08-19T12:59:25.443Z,100686.31
2018-08-19T13:00:41.706Z,100677.41